createdAt,value
2018-05-16T00:00:30.012Z,10.30
2018-05-16T00:02:57.496Z,10.30
2018-05-16T00:05:25.749Z,10.30
2018-05-16T00:07:54.038Z,10.20
2018-05-16T00:10:21.525Z,10.20
2018-05-16T00:12:49.019Z,10.20
2018-05-16T00:15:16.529Z,10.10
2018-05-16T00:17:44.781Z,10.10
2018-05-16T00:20:12.269Z,10.10
2018-05-16T00:22:40.554Z,10.10
2018-05-16T00:25:08.049Z,10.10
2018-05-16T00:27:35.538Z,10.20
2018-05-16T00:30:03.083Z,10.20
2018-05-16T00:32:30.573Z,10.20
2018-05-16T00:34:58.834Z,10.20
2018-05-16T00:37:26.361Z,10.20
2018-05-16T00:39:53.847Z,10.20
2018-05-16T00:42:21.350Z,10.10
2018-05-16T00:44:48.871Z,10.20
2018-05-16T00:47:17.148Z,10.20
2018-05-16T00:49:45.429Z,10.20
2018-05-16T00:52:13.686Z,10.20
2018-05-16T00:54:41.197Z,10.20
2018-05-16T00:57:08.713Z,10.20
2018-05-16T00:59:36.205Z,10.30
2018-05-16T01:02:03.711Z,10.30
2018-05-16T01:04:31.237Z,10.30
2018-05-16T01:06:58.736Z,10.30
2018-05-16T01:09:26.222Z,10.30
2018-05-16T01:11:54.501Z,10.40
2018-05-16T01:14:22.765Z,10.40
2018-05-16T01:16:51.061Z,10.30
2018-05-16T01:19:18.556Z,10.40
2018-05-16T01:21:46.041Z,10.40
2018-05-16T01:24:13.566Z,10.30
2018-05-16T01:26:41.063Z,10.30
2018-05-16T01:29:08.582Z,10.40
2018-05-16T01:31:36.078Z,10.40
2018-05-16T01:34:03.592Z,10.40
2018-05-16T01:36:31.093Z,10.40
2018-05-16T01:38:58.599Z,10.40
2018-05-16T01:41:26.111Z,10.40
2018-05-16T01:43:53.708Z,10.40
2018-05-16T01:46:21.210Z,10.40
2018-05-16T01:49:00.619Z,10.40
2018-05-16T01:51:28.111Z,10.40
2018-05-16T01:53:57.135Z,10.50
2018-05-16T01:56:25.384Z,10.50
2018-05-16T01:58:52.903Z,10.50
2018-05-16T02:01:20.401Z,10.50
2018-05-16T02:03:47.898Z,10.50
2018-05-16T02:06:15.458Z,10.50
2018-05-16T02:08:42.959Z,10.50
2018-05-16T02:11:10.444Z,10.60
2018-05-16T02:13:37.966Z,10.60
2018-05-16T02:16:05.453Z,10.60
2018-05-16T02:18:32.938Z,10.60
2018-05-16T02:21:01.207Z,10.60
2018-05-16T02:23:29.470Z,10.60
2018-05-16T02:25:56.975Z,10.70
2018-05-16T02:28:24.471Z,10.60
2018-05-16T02:30:51.973Z,10.60
2018-05-16T02:33:19.480Z,10.60
2018-05-16T02:35:46.985Z,10.60
2018-05-16T02:38:14.503Z,10.60
2018-05-16T02:40:41.991Z,10.60
2018-05-16T02:43:10.281Z,10.60
2018-05-16T02:45:37.773Z,10.60
2018-05-16T02:48:05.283Z,10.60
2018-05-16T02:50:33.532Z,10.70
2018-05-16T02:53:01.033Z,10.70
2018-05-16T02:55:28.529Z,10.70
2018-05-16T02:57:56.279Z,10.70
2018-05-16T03:00:23.777Z,10.70
2018-05-16T03:02:51.280Z,10.70
2018-05-16T03:05:18.799Z,10.70
2018-05-16T03:07:46.307Z,10.60
2018-05-16T03:10:13.827Z,10.60
2018-05-16T03:12:42.144Z,10.50
2018-05-16T03:15:09.665Z,10.50
2018-05-16T03:17:37.920Z,10.40
2018-05-16T03:20:05.461Z,10.40
2018-05-16T03:22:32.929Z,10.40
2018-05-16T03:25:00.426Z,10.50
2018-05-16T03:27:27.929Z,10.40
2018-05-16T03:29:55.810Z,10.30
2018-05-16T03:32:23.316Z,10.30
2018-05-16T03:34:50.821Z,10.40
2018-05-16T03:37:18.322Z,10.40
2018-05-16T03:39:45.822Z,10.40
2018-05-16T03:42:13.322Z,10.30
2018-05-16T03:44:41.588Z,10.20
2018-05-16T03:47:09.110Z,10.20
2018-05-16T03:49:36.606Z,10.20
2018-05-16T03:52:04.115Z,10.30
2018-05-16T03:54:31.612Z,10.20
2018-05-16T03:56:59.119Z,10.20
2018-05-16T03:59:38.474Z,10.30
2018-05-16T04:05:10.502Z,10.30
2018-05-16T04:07:37.998Z,10.30
2018-05-16T04:10:05.503Z,10.20
2018-05-16T04:12:33.011Z,10.30
2018-05-16T04:15:00.523Z,10.20
2018-05-16T04:17:28.039Z,10.20
2018-05-16T04:19:55.525Z,10.10
2018-05-16T04:22:23.041Z,10.10
2018-05-16T04:24:50.537Z,10.20
2018-05-16T04:27:18.071Z,10.20
2018-05-16T04:29:45.561Z,10.20
2018-05-16T04:32:13.079Z,10.20
2018-05-16T04:34:40.570Z,10.10
2018-05-16T04:37:08.089Z,10.20
2018-05-16T04:39:35.572Z,10.20
2018-05-16T04:42:03.080Z,10.20
2018-05-16T04:44:31.361Z,10.30
2018-05-16T04:46:59.630Z,10.30
2018-05-16T04:49:27.915Z,10.40
2018-05-16T04:51:56.204Z,10.30
2018-05-16T04:54:24.483Z,10.30
2018-05-16T04:56:52.114Z,10.30
2018-05-16T04:59:19.631Z,10.30
2018-05-16T05:01:47.121Z,10.30
2018-05-16T05:04:14.629Z,10.30
2018-05-16T05:06:42.123Z,10.30
2018-05-16T05:09:09.631Z,10.20
2018-05-16T05:11:37.144Z,10.20
2018-05-16T05:14:04.645Z,10.20
2018-05-16T05:16:32.913Z,10.10
2018-05-16T05:19:01.161Z,10.10
2018-05-16T05:21:28.675Z,10.10
2018-05-16T05:23:56.200Z,10.10
2018-05-16T05:26:23.711Z,10.10
2018-05-16T05:28:51.239Z,10.10
2018-05-16T05:31:18.739Z,10.20
2018-05-16T05:33:46.250Z,10.20
2018-05-16T05:36:14.523Z,10.20
2018-05-16T05:38:42.802Z,10.20
2018-05-16T05:41:11.070Z,10.20
2018-05-16T05:43:39.337Z,10.20
2018-05-16T05:46:07.611Z,10.20
2018-05-16T05:48:35.892Z,10.20
2018-05-16T05:51:04.150Z,10.20
2018-05-16T05:53:31.680Z,10.20
2018-05-16T05:55:59.175Z,10.30
2018-05-16T05:58:27.442Z,10.20
2018-05-16T06:00:54.960Z,10.20
2018-05-16T06:03:22.468Z,10.20
2018-05-16T06:05:49.982Z,10.20
2018-05-16T06:08:17.479Z,10.20
2018-05-16T06:10:44.999Z,10.10
2018-05-16T06:13:12.492Z,10.00
2018-05-16T06:15:40.779Z,10.10
2018-05-16T06:18:09.048Z,10.20
2018-05-16T06:20:36.556Z,10.20
2018-05-16T06:23:04.073Z,10.30
2018-05-16T06:25:32.367Z,10.30
2018-05-16T06:28:00.632Z,10.40
2018-05-16T06:30:28.898Z,10.40
2018-05-16T06:32:56.501Z,10.40
2018-05-16T06:35:24.017Z,10.40
2018-05-16T06:37:51.539Z,10.40
2018-05-16T06:40:19.031Z,10.40
2018-05-16T06:42:46.538Z,10.50
2018-05-16T06:45:14.029Z,10.40
2018-05-16T06:47:41.554Z,10.40
2018-05-16T06:50:09.106Z,10.50
2018-05-16T06:52:36.607Z,10.50
2018-05-16T06:55:04.169Z,10.60
2018-05-16T06:57:31.669Z,10.70
2018-05-16T06:59:59.969Z,10.70
2018-05-16T07:02:27.482Z,10.70
2018-05-16T07:04:55.771Z,10.80
2018-05-16T07:07:24.071Z,10.70
2018-05-16T07:09:51.592Z,10.70
2018-05-16T07:12:19.905Z,10.80
2018-05-16T07:14:47.431Z,10.70
2018-05-16T07:17:16.049Z,10.90
2018-05-16T07:19:46.363Z,10.90
2018-05-16T07:22:13.930Z,10.90
2018-05-16T07:24:43.336Z,11.00
2018-05-16T07:27:13.765Z,11.00
2018-05-16T07:29:41.326Z,10.90
2018-05-16T07:32:08.883Z,11.00
2018-05-16T07:34:36.410Z,11.00
2018-05-16T07:37:05.787Z,11.00
2018-05-16T07:39:33.848Z,11.00
2018-05-16T07:42:01.769Z,11.10
2018-05-16T07:44:30.323Z,11.10
2018-05-16T07:46:58.962Z,11.00
2018-05-16T07:49:26.537Z,11.10
2018-05-16T07:51:54.102Z,11.00
2018-05-16T07:54:25.649Z,11.10
2018-05-16T07:56:58.028Z,11.20
2018-05-16T07:59:25.638Z,11.20
2018-05-16T08:01:53.248Z,11.20
2018-05-16T08:04:22.485Z,11.20
2018-05-16T08:06:50.817Z,11.10
2018-05-16T08:09:18.315Z,11.10
2018-05-16T08:11:46.632Z,10.90
2018-05-16T08:14:14.755Z,10.90
2018-05-16T08:16:42.289Z,11.00
2018-05-16T08:19:09.814Z,10.90
2018-05-16T08:21:37.477Z,11.00
2018-05-16T08:24:05.037Z,11.20
2018-05-16T08:26:32.637Z,11.20
2018-05-16T08:29:00.228Z,11.20
2018-05-16T08:31:28.517Z,11.30
2018-05-16T08:33:56.876Z,11.40
2018-05-16T08:36:24.369Z,11.40
2018-05-16T08:38:52.598Z,11.40
2018-05-16T08:41:20.188Z,11.50
2018-05-16T08:43:48.826Z,11.50
2018-05-16T08:46:16.403Z,11.50
2018-05-16T08:48:45.500Z,11.60
2018-05-16T08:51:13.031Z,11.60
2018-05-16T08:53:41.237Z,11.70
2018-05-16T08:56:08.838Z,11.70
2018-05-16T08:58:36.335Z,11.80
2018-05-16T09:03:41.902Z,11.80
2018-05-16T09:06:13.080Z,11.90
2018-05-16T09:08:40.676Z,11.90
2018-05-16T09:11:08.216Z,12.00
2018-05-16T09:13:35.837Z,12.10
2018-05-16T09:16:04.406Z,12.10
2018-05-16T09:18:41.053Z,12.10
2018-05-16T09:21:16.227Z,12.10
2018-05-16T09:23:50.868Z,12.20
2018-05-16T09:26:38.963Z,12.30
2018-05-16T09:29:07.033Z,12.20
2018-05-16T09:31:37.312Z,12.30
2018-05-16T09:34:05.691Z,12.40
2018-05-16T09:36:34.672Z,12.60
2018-05-16T09:39:12.816Z,12.50
2018-05-16T09:41:40.365Z,12.50
2018-05-16T09:44:10.495Z,12.60
2018-05-16T09:46:38.117Z,12.50
2018-05-16T09:49:11.351Z,12.60
2018-05-16T09:51:39.750Z,12.30
2018-05-16T09:54:07.353Z,12.40
2018-05-16T09:56:34.875Z,12.40
2018-05-16T09:59:02.386Z,12.40
2018-05-16T10:01:30.677Z,12.40
2018-05-16T10:03:58.179Z,12.40
2018-05-16T10:06:25.700Z,12.50
2018-05-16T10:08:53.360Z,12.50
2018-05-16T10:11:20.893Z,12.40
2018-05-16T10:13:49.897Z,12.40
2018-05-16T10:16:18.253Z,12.50
2018-05-16T10:18:45.853Z,12.50
2018-05-16T10:21:13.412Z,12.20
2018-05-16T10:23:41.063Z,12.30
2018-05-16T10:26:17.445Z,12.40
2018-05-16T10:28:45.058Z,12.30
2018-05-16T10:31:20.056Z,12.30
2018-05-16T10:33:48.671Z,12.30
2018-05-16T10:36:16.370Z,12.40
2018-05-16T10:38:43.941Z,12.30
2018-05-16T10:41:11.452Z,12.40
2018-05-16T10:43:39.673Z,12.40
2018-05-16T10:46:11.046Z,12.60
2018-05-16T10:48:40.070Z,12.60
2018-05-16T10:51:15.160Z,12.50
2018-05-16T10:54:07.598Z,12.60
2018-05-16T10:56:39.459Z,12.70
2018-05-16T10:59:19.993Z,12.80
2018-05-16T11:10:19.795Z,12.50
2018-05-16T11:12:52.157Z,12.70
2018-05-16T11:15:28.392Z,12.70
2018-05-16T11:18:03.155Z,12.70
2018-05-16T11:20:30.710Z,12.70
2018-05-16T11:22:58.229Z,12.80
2018-05-16T11:25:25.984Z,12.80
2018-05-16T11:27:53.524Z,13.00
2018-05-16T11:30:21.098Z,12.90
2018-05-16T11:32:52.222Z,12.90
2018-05-16T11:35:19.906Z,13.00
2018-05-16T11:37:47.463Z,12.80
2018-05-16T11:40:22.354Z,12.80
2018-05-16T11:42:49.890Z,12.80
2018-05-16T11:45:18.220Z,12.70
2018-05-16T11:47:47.276Z,12.80
2018-05-16T11:50:17.381Z,12.70
2018-05-16T11:52:44.935Z,12.90
2018-05-16T11:55:13.328Z,13.00
2018-05-16T11:57:40.817Z,13.00
2018-05-16T12:00:11.573Z,13.10
2018-05-16T12:02:39.186Z,12.80
2018-05-16T12:05:08.254Z,12.80
2018-05-16T12:07:36.567Z,12.80
2018-05-16T12:10:04.155Z,12.80
2018-05-16T12:12:35.785Z,12.80
2018-05-16T12:15:04.270Z,12.90
2018-05-16T12:17:32.689Z,12.90
2018-05-16T12:20:03.881Z,12.90
2018-05-16T12:22:38.047Z,12.80
2018-05-16T12:25:08.451Z,12.80
2018-05-16T12:27:36.270Z,12.80
2018-05-16T12:30:04.777Z,12.80
2018-05-16T12:32:32.958Z,12.80
2018-05-16T12:35:00.547Z,12.70
2018-05-16T12:37:28.845Z,12.80
2018-05-16T12:39:57.328Z,12.80
2018-05-16T12:42:25.690Z,12.80
2018-05-16T12:44:55.039Z,12.90
2018-05-16T12:47:22.594Z,12.70
2018-05-16T12:49:50.167Z,12.70
2018-05-16T12:52:17.762Z,12.70
2018-05-16T12:54:45.353Z,12.80
2018-05-16T12:57:13.722Z,12.70
2018-05-16T12:59:42.029Z,12.80
2018-05-16T13:02:09.642Z,12.80
2018-05-16T13:04:37.165Z,12.70
2018-05-16T13:07:04.764Z,12.90
2018-05-16T13:09:32.326Z,12.70
2018-05-16T13:11:59.961Z,12.80
2018-05-16T13:14:27.529Z,12.70
2018-05-16T13:16:55.036Z,12.70
2018-05-16T13:19:23.326Z,12.50
2018-05-16T13:21:50.850Z,12.50
2018-05-16T13:24:19.172Z,12.50
2018-05-16T13:26:46.771Z,12.50
2018-05-16T13:29:15.045Z,12.40
2018-05-16T13:31:42.573Z,12.40
2018-05-16T13:34:10.141Z,12.50
2018-05-16T13:36:37.702Z,12.40
2018-05-16T13:39:18.236Z,12.60
2018-05-16T13:41:45.766Z,12.40
2018-05-16T13:44:14.111Z,12.50
2018-05-16T13:46:41.615Z,12.50
2018-05-16T13:49:09.897Z,12.60
2018-05-16T13:51:38.218Z,12.60
2018-05-16T13:54:05.742Z,12.60
2018-05-16T13:56:33.941Z,12.60
2018-05-16T13:59:01.547Z,12.60
2018-05-16T14:01:29.835Z,12.60
2018-05-16T14:03:58.109Z,12.50
2018-05-16T14:06:26.474Z,12.40
2018-05-16T14:08:53.994Z,12.40
2018-05-16T14:11:21.574Z,12.50
2018-05-16T14:13:49.139Z,12.40
2018-05-16T14:16:16.638Z,12.20
2018-05-16T14:18:49.434Z,12.20
2018-05-16T14:21:18.522Z,12.00
2018-05-16T14:23:46.063Z,12.10
2018-05-16T14:26:13.549Z,12.10
2018-05-16T14:28:41.302Z,12.20
2018-05-16T14:31:08.837Z,12.00
2018-05-16T14:33:41.112Z,12.10
2018-05-16T14:36:09.864Z,12.20
2018-05-16T14:38:38.883Z,12.10
2018-05-16T14:41:07.154Z,12.30
2018-05-16T14:43:34.705Z,12.30
2018-05-16T14:46:02.439Z,12.20
2018-05-16T14:48:34.584Z,12.30
2018-05-16T14:51:03.109Z,12.30
2018-05-16T14:53:30.623Z,12.40
2018-05-16T14:55:58.722Z,12.40
2018-05-16T14:58:26.988Z,12.40
2018-05-16T15:00:55.196Z,12.50
2018-05-16T15:03:22.893Z,12.50
2018-05-16T15:05:53.211Z,12.50
2018-05-16T15:08:21.555Z,12.40
2018-05-16T15:10:49.077Z,12.40
2018-05-16T15:13:18.112Z,12.40
2018-05-16T15:15:45.653Z,12.40
2018-05-16T15:18:13.206Z,12.50
2018-05-16T15:20:41.264Z,12.70
2018-05-16T15:23:08.873Z,12.60
2018-05-16T15:25:42.871Z,12.60
2018-05-16T15:28:11.950Z,12.50
2018-05-16T15:30:41.007Z,12.50
2018-05-16T15:33:08.691Z,12.50
2018-05-16T15:35:38.220Z,12.50
2018-05-16T15:38:08.676Z,12.50
2018-05-16T15:40:37.052Z,12.40
2018-05-16T15:43:05.488Z,12.40
2018-05-16T15:45:33.090Z,12.40
2018-05-16T15:48:01.957Z,12.50
2018-05-16T15:50:29.522Z,12.50
2018-05-16T15:52:58.844Z,12.50
2018-05-16T15:55:27.367Z,12.40
2018-05-16T15:57:54.927Z,12.40
2018-05-16T16:00:22.442Z,12.40
2018-05-16T16:02:50.792Z,12.50
2018-05-16T16:05:18.337Z,12.50
2018-05-16T16:07:45.919Z,12.40
2018-05-16T16:10:13.576Z,12.40
2018-05-16T16:12:44.430Z,12.40
2018-05-16T16:15:17.509Z,12.50
2018-05-16T16:17:45.337Z,12.50
2018-05-16T16:20:21.265Z,12.50
2018-05-16T16:22:51.902Z,12.30
2018-05-16T16:25:20.341Z,12.30
2018-05-16T16:27:47.936Z,12.30
2018-05-16T16:30:16.539Z,12.30
2018-05-16T16:32:45.033Z,12.30
2018-05-16T16:35:13.877Z,12.30
2018-05-16T16:37:42.241Z,12.20
2018-05-16T16:40:10.054Z,12.20
2018-05-16T16:42:40.280Z,12.30
2018-05-16T16:45:08.485Z,12.30
2018-05-16T16:47:36.205Z,12.40
2018-05-16T16:50:08.060Z,12.30
2018-05-16T16:52:39.116Z,12.30
2018-05-16T16:55:13.331Z,12.30
2018-05-16T16:57:42.934Z,12.10
2018-05-16T17:00:10.553Z,12.20
2018-05-16T17:02:41.553Z,12.20
2018-05-16T17:05:09.115Z,12.10
2018-05-16T17:07:36.700Z,12.10
2018-05-16T17:10:13.361Z,12.10
2018-05-16T17:12:40.956Z,12.10
2018-05-16T17:15:08.457Z,12.10
2018-05-16T17:17:36.164Z,12.10
2018-05-16T17:20:03.704Z,12.00
2018-05-16T17:22:31.292Z,12.00
2018-05-16T17:24:59.015Z,12.00
2018-05-16T17:27:26.780Z,11.90
2018-05-16T17:29:54.681Z,11.80
2018-05-16T17:32:22.221Z,11.80
2018-05-16T17:34:49.837Z,11.80
2018-05-16T17:37:17.501Z,11.70
2018-05-16T17:39:45.013Z,11.80
2018-05-16T17:42:12.531Z,11.80
2018-05-16T17:44:40.091Z,11.70
2018-05-16T17:47:07.774Z,11.80
2018-05-16T17:49:35.262Z,11.80
2018-05-16T17:52:02.783Z,11.80
2018-05-16T17:54:30.445Z,11.80
2018-05-16T17:56:58.013Z,11.70
2018-05-16T17:59:25.715Z,11.60
2018-05-16T18:01:53.603Z,11.60
2018-05-16T18:04:21.170Z,11.60
2018-05-16T18:06:48.754Z,11.60
2018-05-16T18:09:16.398Z,11.60
2018-05-16T18:11:44.088Z,11.60
2018-05-16T18:14:24.250Z,11.60
2018-05-16T18:17:02.693Z,11.60
2018-05-16T18:19:30.145Z,11.50
2018-05-16T18:21:57.707Z,11.50
2018-05-16T18:24:26.000Z,11.50
2018-05-16T18:26:54.286Z,11.50
2018-05-16T18:29:22.010Z,11.50
2018-05-16T18:31:51.300Z,11.50
2018-05-16T18:34:18.837Z,11.40
2018-05-16T18:36:46.540Z,11.50
2018-05-16T18:39:14.356Z,11.50
2018-05-16T18:41:42.021Z,11.50
2018-05-16T18:44:09.779Z,11.40
2018-05-16T18:46:37.284Z,11.40
2018-05-16T18:49:05.004Z,11.30
2018-05-16T18:51:32.547Z,11.40
2018-05-16T18:54:00.325Z,11.40
2018-05-16T18:56:27.989Z,11.40
2018-05-16T18:58:55.646Z,11.50
2018-05-16T19:01:24.027Z,11.40
2018-05-16T19:03:51.901Z,11.50
2018-05-16T19:06:19.423Z,11.50
2018-05-16T19:08:48.325Z,11.40
2018-05-16T19:11:17.901Z,11.40
2018-05-16T19:13:45.819Z,11.30
2018-05-16T19:16:13.690Z,11.30
2018-05-16T19:18:42.606Z,11.30
2018-05-16T19:21:11.054Z,11.30
2018-05-16T19:23:39.024Z,11.40
2018-05-16T19:26:06.788Z,11.30
2018-05-16T19:28:34.551Z,11.30
2018-05-16T19:31:02.315Z,11.20
2018-05-16T19:33:29.845Z,11.20
2018-05-16T19:35:58.458Z,11.20
2018-05-16T19:38:26.148Z,11.20
2018-05-16T19:40:54.225Z,11.30
2018-05-16T19:43:22.918Z,11.30
2018-05-16T19:45:51.391Z,11.30
2018-05-16T19:48:20.043Z,11.20
2018-05-16T19:50:47.735Z,11.20
2018-05-16T19:53:15.808Z,11.20
2018-05-16T19:55:44.360Z,11.20
2018-05-16T19:58:12.943Z,11.20
2018-05-16T20:00:40.707Z,11.20
2018-05-16T20:03:08.638Z,11.10
2018-05-16T20:05:37.264Z,11.10
2018-05-16T20:08:04.819Z,11.10
2018-05-16T20:10:32.302Z,11.10
2018-05-16T20:13:02.474Z,11.00
2018-05-16T20:15:31.247Z,11.10
2018-05-16T20:17:59.794Z,11.10
2018-05-16T20:20:27.633Z,11.10
2018-05-16T20:22:55.194Z,11.10
2018-05-16T20:25:22.873Z,11.10
2018-05-16T20:27:50.488Z,11.10
2018-05-16T20:30:19.102Z,11.00
2018-05-16T20:32:47.013Z,11.00
2018-05-16T20:35:15.559Z,10.90
2018-05-16T20:37:43.307Z,10.90
2018-05-16T20:40:10.792Z,10.90
2018-05-16T20:42:38.720Z,10.90
2018-05-16T20:45:06.504Z,10.90
2018-05-16T20:47:34.166Z,10.90
2018-05-16T20:50:02.646Z,10.90
2018-05-16T20:52:30.515Z,11.00
2018-05-16T20:54:58.123Z,11.00
2018-05-16T20:57:26.553Z,10.90
2018-05-16T20:59:54.095Z,10.90
2018-05-16T21:02:21.775Z,10.90
2018-05-16T21:04:49.316Z,10.90
2018-05-16T21:07:16.968Z,10.90
2018-05-16T21:09:44.761Z,10.90
2018-05-16T21:12:12.414Z,10.90
2018-05-16T21:14:40.904Z,10.90
2018-05-16T21:17:08.670Z,10.90
2018-05-16T21:19:36.210Z,10.90
2018-05-16T21:22:03.892Z,10.90
2018-05-16T21:24:32.369Z,10.90
2018-05-16T21:27:01.470Z,10.90
2018-05-16T21:29:29.333Z,10.90
2018-05-16T21:31:57.200Z,10.90
2018-05-16T21:34:25.759Z,10.90
2018-05-16T21:36:53.649Z,10.80
2018-05-16T21:39:21.414Z,10.80
2018-05-16T21:41:49.138Z,10.80
2018-05-16T21:44:17.588Z,10.90
2018-05-16T21:46:45.335Z,10.80
2018-05-16T21:49:12.954Z,10.80
2018-05-16T21:51:41.259Z,10.80
2018-05-16T21:54:08.761Z,10.80
2018-05-16T21:56:36.336Z,10.80
2018-05-16T21:59:03.803Z,10.80
2018-05-16T22:01:32.067Z,10.80
2018-05-16T22:04:00.333Z,10.80
2018-05-16T22:06:27.819Z,10.80
2018-05-16T22:08:56.111Z,10.80
2018-05-16T22:11:23.607Z,10.80
2018-05-16T22:13:51.108Z,10.80
2018-05-16T22:16:19.380Z,10.80
2018-05-16T22:18:47.644Z,10.80
2018-05-16T22:21:15.154Z,10.80
2018-05-16T22:23:42.637Z,10.80
2018-05-16T22:26:10.128Z,10.90
2018-05-16T22:28:38.392Z,10.90
2018-05-16T22:31:11.654Z,10.80
2018-05-16T22:33:44.984Z,10.80
2018-05-16T22:36:18.069Z,10.90
2018-05-16T22:38:51.233Z,10.90
2018-05-16T22:41:24.446Z,10.90
2018-05-16T22:43:57.280Z,10.90
2018-05-16T22:46:24.783Z,10.90
2018-05-16T22:48:52.260Z,10.80
2018-05-16T22:51:20.513Z,10.90
2018-05-16T22:53:48.027Z,10.80
2018-05-16T22:56:15.506Z,10.90
2018-05-16T22:58:43.004Z,10.90
2018-05-16T23:01:10.499Z,10.90
2018-05-16T23:03:37.995Z,10.90
2018-05-16T23:06:05.489Z,10.90
2018-05-16T23:08:33.733Z,10.90
2018-05-16T23:11:03.521Z,10.90
2018-05-16T23:13:31.086Z,10.80
2018-05-16T23:15:58.620Z,10.80
2018-05-16T23:18:26.102Z,10.90
2018-05-16T23:20:53.631Z,10.90
2018-05-16T23:23:21.126Z,10.90
2018-05-16T23:25:48.668Z,10.90
2018-05-16T23:28:16.153Z,10.90
2018-05-16T23:30:43.647Z,10.90
2018-05-16T23:33:11.908Z,10.80
2018-05-16T23:35:39.394Z,10.80
2018-05-16T23:38:06.906Z,10.80
2018-05-16T23:40:34.400Z,10.80
2018-05-16T23:43:02.679Z,10.80
2018-05-16T23:45:30.178Z,10.80
2018-05-16T23:47:57.689Z,10.80
2018-05-16T23:50:25.944Z,10.70
2018-05-16T23:52:53.443Z,10.70
2018-05-16T23:55:20.985Z,10.70
2018-05-16T23:57:49.246Z,10.70
